首页
METAR-TAF:

METAR-TAF

机场 :

阿什维尔, 北卡罗来纳州, 美国

纬度: 35-25-55N, 经度: 082-32-15W, 海拔: 660米

当前天气观测

该预报发布于12分钟前的00:54 UTC
风速6节,风向北转西北
温度 2°C
湿度 80%
气压 1021 hPa
能見度: 16.1公里
天空无云

METAR: KAVL 110054Z 33006KT 10SM CLR 02/M01 A3014 RMK AO2 SLP213 T00171011

时间: 20:06 (01:06 UTC)

预报

该预报发布于1小时和32分钟前的23:34 UTC
预报有效从11日的 00点(UTC)到 11日的 24点(UTC)
风速5节,风向北转西北
能見度: 10公里
多云层高于3000英尺
阴天层高于12000英尺
从 11日的 0300点(UTC)
风速5节,风向北转西北
能見度: 10公里
多云层高于6000英尺
阴天层高于12000英尺
从 11日的 0800点(UTC)
风速6节,风向北转西北
能見度: 10公里
散云层高于25000英尺

TAF: KAVL 102334Z 1100/1124 33005KT P6SM BKN030 OVC120 FM110300 33005KT P6SM BKN060 OVC120 FM110800 33006KT P6SM SCT250

超过4000个机场的气象观测和天气预报(METAR&TAF报告)。

可查询的气象台以黄色和红色小点在地图上表示。

将鼠标移到小点上方,可查看气象台名称。

然后点击查看天气观测和预报。

如需切换地图:点击带黑十字的绿色按钮放大地图;点击带横线的绿色按钮缩小地图;或者点击绿色箭头查看邻近地区的地图。


METAR-TAF: